createdAt,value
2023-05-12T00:00:27.973Z,11.18
2023-05-12T00:02:55.680Z,11.20
2023-05-12T00:05:23.582Z,11.19
2023-05-12T00:07:51.264Z,11.12
2023-05-12T00:10:19.168Z,11.13
2023-05-12T00:12:46.953Z,11.05
2023-05-12T00:15:14.609Z,11.20
2023-05-12T00:17:43.517Z,11.19
2023-05-12T00:20:12.556Z,11.14
2023-05-12T00:22:40.303Z,11.07
2023-05-12T00:25:09.555Z,11.23
2023-05-12T00:27:37.207Z,10.99
2023-05-12T00:30:05.511Z,11.15
2023-05-12T00:32:33.190Z,11.11
2023-05-12T00:35:02.220Z,11.04
2023-05-12T00:37:29.847Z,11.04
2023-05-12T00:39:57.490Z,10.83
2023-05-12T00:42:25.161Z,11.04
2023-05-12T00:44:52.807Z,11.05
2023-05-12T00:47:21.626Z,11.06
2023-05-12T00:49:49.392Z,10.93
2023-05-12T00:52:18.396Z,11.06
2023-05-12T00:54:46.754Z,11.03
2023-05-12T00:57:14.421Z,11.06
2023-05-12T00:59:42.009Z,10.85
2023-05-12T01:02:09.637Z,11.04
2023-05-12T01:04:39.942Z,11.01
2023-05-12T01:07:11.202Z,11.06
2023-05-12T01:09:40.186Z,11.00
2023-05-12T01:12:08.248Z,10.90
2023-05-12T01:14:36.148Z,11.00
2023-05-12T01:17:10.111Z,10.99
2023-05-12T01:19:42.669Z,10.92
2023-05-12T01:22:10.694Z,10.99
2023-05-12T01:24:46.460Z,11.02
2023-05-12T01:27:17.222Z,10.96
2023-05-12T01:29:45.760Z,10.95
2023-05-12T01:32:14.144Z,10.95
2023-05-12T01:34:42.379Z,10.87
2023-05-12T01:37:10.338Z,10.91
2023-05-12T01:39:38.218Z,10.91
2023-05-12T01:42:06.831Z,10.91
2023-05-12T01:44:36.105Z,10.97
2023-05-12T01:47:03.749Z,10.80
2023-05-12T01:49:31.577Z,10.96
2023-05-12T01:51:59.159Z,10.95
2023-05-12T01:54:27.463Z,10.95
2023-05-12T01:56:55.088Z,10.95
2023-05-12T01:59:22.746Z,10.97
2023-05-12T02:01:51.734Z,10.97
2023-05-12T02:04:19.403Z,11.02
2023-05-12T02:06:47.371Z,11.02
2023-05-12T02:09:15.069Z,10.76
2023-05-12T02:11:42.659Z,11.00
2023-05-12T02:14:10.211Z,11.00
2023-05-12T02:16:37.894Z,11.03
2023-05-12T02:19:07.107Z,10.85
2023-05-12T02:21:34.764Z,11.03
2023-05-12T02:24:02.315Z,11.09
2023-05-12T02:26:29.920Z,10.93
2023-05-12T02:28:57.515Z,11.03
2023-05-12T02:31:25.836Z,10.99
2023-05-12T02:33:55.532Z,10.98
2023-05-12T02:36:24.445Z,11.03
2023-05-12T02:38:52.046Z,10.89
2023-05-12T02:41:19.776Z,10.98
2023-05-12T02:43:47.372Z,10.96
2023-05-12T02:46:15.167Z,11.06
2023-05-12T02:48:42.742Z,11.02
2023-05-12T02:51:10.369Z,10.94
2023-05-12T02:53:39.446Z,11.04
2023-05-12T02:56:07.793Z,11.13
2023-05-12T02:58:35.502Z,11.01
2023-05-12T03:01:10.559Z,11.00
2023-05-12T03:03:39.237Z,10.95
2023-05-12T03:06:07.562Z,10.85
2023-05-12T03:08:36.160Z,10.94
2023-05-12T03:11:05.493Z,10.97
2023-05-12T03:13:33.356Z,10.89
2023-05-12T03:16:01.565Z,10.89
2023-05-12T03:18:29.533Z,10.87
2023-05-12T03:20:57.264Z,10.91
2023-05-12T03:23:24.955Z,10.92
2023-05-12T03:25:52.837Z,10.92
2023-05-12T03:28:22.955Z,10.92
2023-05-12T03:30:50.707Z,10.90
2023-05-12T03:33:18.312Z,10.78
2023-05-12T03:35:45.880Z,10.87
2023-05-12T03:38:13.454Z,10.85
2023-05-12T03:40:41.104Z,10.86
2023-05-12T03:43:08.903Z,10.90
2023-05-12T03:45:37.816Z,10.92
2023-05-12T03:48:06.284Z,10.86
2023-05-12T03:50:34.006Z,10.91
2023-05-12T03:53:02.102Z,10.82
2023-05-12T03:55:29.880Z,10.84
2023-05-12T03:57:57.621Z,10.75
2023-05-12T04:00:25.364Z,10.80
2023-05-12T04:02:54.453Z,10.78
2023-05-12T04:05:22.134Z,10.66
2023-05-12T04:07:49.826Z,10.80
2023-05-12T04:10:17.700Z,10.60
2023-05-12T04:12:45.341Z,10.76
2023-05-12T04:15:14.720Z,10.78
2023-05-12T04:17:42.480Z,10.81
2023-05-12T04:20:12.290Z,10.70
2023-05-12T04:22:40.479Z,10.57
2023-05-12T04:25:08.878Z,10.74
2023-05-12T04:27:36.542Z,10.79
2023-05-12T04:30:04.315Z,10.72
2023-05-12T04:32:31.962Z,10.78
2023-05-12T04:34:59.579Z,10.82
2023-05-12T04:37:28.607Z,10.73
2023-05-12T04:39:56.191Z,10.88
2023-05-12T04:42:23.857Z,10.85
2023-05-12T04:44:51.466Z,10.90
2023-05-12T04:47:19.226Z,10.78
2023-05-12T04:49:46.851Z,10.93
2023-05-12T04:52:14.590Z,10.79
2023-05-12T04:54:43.684Z,10.80
2023-05-12T04:57:11.268Z,10.88
2023-05-12T04:59:41.219Z,10.86
2023-05-12T05:02:09.312Z,10.89
2023-05-12T05:04:37.656Z,10.81
2023-05-12T05:07:05.529Z,10.86
2023-05-12T05:09:34.511Z,10.88
2023-05-12T05:12:06.863Z,10.86
2023-05-12T05:14:34.594Z,10.85
2023-05-12T05:17:02.268Z,10.96
2023-05-12T05:22:03.389Z,10.98
2023-05-12T05:24:30.999Z,10.96
2023-05-12T05:26:59.634Z,11.04
2023-05-12T05:29:28.609Z,11.07
2023-05-12T05:31:56.402Z,11.09
2023-05-12T05:34:24.057Z,11.02
2023-05-12T05:36:51.698Z,11.04
2023-05-12T05:39:19.368Z,11.04
2023-05-12T05:41:47.049Z,11.14
2023-05-12T05:44:14.687Z,11.11
2023-05-12T05:46:43.817Z,11.11
2023-05-12T05:49:11.469Z,10.97
2023-05-12T05:51:39.166Z,11.26
2023-05-12T05:54:06.883Z,11.06
2023-05-12T05:56:35.941Z,11.07
2023-05-12T05:59:04.661Z,11.19
2023-05-12T06:01:32.466Z,11.07
2023-05-12T06:04:01.774Z,11.20
2023-05-12T06:06:30.211Z,11.30
2023-05-12T06:08:57.815Z,11.27
2023-05-12T06:11:25.618Z,11.29
2023-05-12T06:13:53.239Z,11.28
2023-05-12T06:16:20.835Z,11.11
2023-05-12T06:18:48.475Z,11.27
2023-05-12T06:21:17.515Z,11.38
2023-05-12T06:23:45.183Z,11.30
2023-05-12T06:26:13.192Z,11.39
2023-05-12T06:28:40.814Z,11.14
2023-05-12T06:31:08.968Z,11.11
2023-05-12T06:33:36.593Z,11.18
2023-05-12T06:36:04.383Z,11.16
2023-05-12T06:38:33.375Z,11.26
2023-05-12T06:41:00.977Z,11.27
2023-05-12T06:43:28.575Z,11.30
2023-05-12T06:45:56.739Z,11.28
2023-05-12T06:48:24.509Z,11.28
2023-05-12T06:50:52.588Z,11.53
2023-05-12T06:53:20.145Z,11.39
2023-05-12T06:55:50.990Z,11.38
2023-05-12T06:58:18.978Z,11.60
2023-05-12T07:00:46.625Z,11.81
2023-05-12T07:03:14.660Z,11.76
2023-05-12T07:05:42.759Z,11.80
2023-05-12T07:08:10.388Z,11.78
2023-05-12T07:10:37.996Z,11.87
2023-05-12T07:13:06.956Z,11.91
2023-05-12T07:15:34.571Z,11.93
2023-05-12T07:18:02.278Z,11.86
2023-05-12T07:20:29.860Z,11.92
2023-05-12T07:22:57.713Z,11.95
2023-05-12T07:25:25.386Z,11.92
2023-05-12T07:27:53.101Z,11.79
2023-05-12T07:30:22.730Z,11.67
2023-05-12T07:32:50.414Z,11.66
2023-05-12T07:35:18.277Z,11.65
2023-05-12T07:37:46.276Z,11.61
2023-05-12T07:40:14.097Z,11.66
2023-05-12T07:42:41.753Z,11.50
2023-05-12T07:45:09.766Z,11.57
2023-05-12T07:47:38.773Z,11.44
2023-05-12T07:50:07.709Z,11.58
2023-05-12T07:52:35.400Z,11.60
2023-05-12T07:55:03.077Z,11.51
2023-05-12T07:57:30.738Z,11.47
2023-05-12T07:59:59.580Z,11.53
2023-05-12T08:02:28.225Z,11.60
2023-05-12T08:04:57.389Z,11.68
2023-05-12T08:07:25.065Z,11.88
2023-05-12T08:09:52.722Z,11.91
2023-05-12T08:12:21.021Z,12.03
2023-05-12T08:14:48.677Z,11.96
2023-05-12T08:17:16.317Z,12.00
2023-05-12T08:19:44.023Z,12.10
2023-05-12T08:22:13.039Z,12.22
2023-05-12T08:24:40.643Z,12.32
2023-05-12T08:27:08.240Z,12.38
2023-05-12T08:29:36.113Z,12.66
2023-05-12T08:32:04.069Z,12.56
2023-05-12T08:34:31.942Z,12.77
2023-05-12T08:36:59.677Z,12.80
2023-05-12T08:39:30.932Z,12.94
2023-05-12T08:42:06.834Z,12.87
2023-05-12T08:44:34.751Z,12.64
2023-05-12T08:47:02.908Z,12.67
2023-05-12T08:49:32.838Z,12.66
2023-05-12T08:52:02.557Z,12.33
2023-05-12T08:54:31.566Z,12.55
2023-05-12T08:59:29.988Z,12.39
2023-05-12T09:01:57.813Z,12.39
2023-05-12T09:04:25.485Z,12.39
2023-05-12T09:06:55.594Z,12.38
2023-05-12T09:09:24.835Z,12.34
2023-05-12T09:11:58.069Z,12.31
2023-05-12T09:14:26.939Z,12.43
2023-05-12T09:16:57.740Z,12.52
2023-05-12T09:19:25.526Z,12.38
2023-05-12T09:21:53.832Z,12.75
2023-05-12T09:24:22.307Z,12.81
2023-05-12T09:26:51.820Z,12.75
2023-05-12T09:29:31.383Z,12.94
2023-05-12T09:32:03.187Z,12.97
2023-05-12T09:34:32.085Z,13.17
2023-05-12T09:37:01.030Z,13.21
2023-05-12T09:39:28.858Z,13.31
2023-05-12T09:41:56.738Z,13.58
2023-05-12T09:44:26.349Z,13.61
2023-05-12T09:46:54.401Z,13.81
2023-05-12T09:49:23.837Z,13.48
2023-05-12T09:51:53.202Z,13.90
2023-05-12T09:54:28.197Z,14.09
2023-05-12T09:56:59.575Z,14.44
2023-05-12T09:59:32.664Z,14.63
2023-05-12T10:02:03.577Z,14.55
2023-05-12T10:04:34.006Z,14.57
2023-05-12T10:07:01.728Z,14.76
2023-05-12T10:09:33.896Z,14.57
2023-05-12T10:12:03.003Z,14.59
2023-05-12T10:14:32.555Z,14.79
2023-05-12T10:17:00.891Z,14.78
2023-05-12T10:19:30.028Z,14.98
2023-05-12T10:21:58.755Z,14.81
2023-05-12T10:24:27.408Z,14.53
2023-05-12T10:26:56.507Z,14.53
2023-05-12T10:29:29.385Z,14.59
2023-05-12T10:31:58.897Z,14.67
2023-05-12T10:34:31.296Z,14.60
2023-05-12T10:36:59.272Z,14.38
2023-05-12T10:39:29.646Z,14.54
2023-05-12T10:42:02.515Z,14.67
2023-05-12T10:44:30.143Z,14.75
2023-05-12T10:46:59.742Z,14.74
2023-05-12T10:49:34.709Z,14.97
2023-05-12T10:52:02.602Z,15.24
2023-05-12T10:54:30.175Z,15.17
2023-05-12T10:57:00.119Z,15.17
2023-05-12T10:59:28.737Z,15.00
2023-05-12T11:02:03.655Z,14.91
2023-05-12T11:04:44.476Z,14.89
2023-05-12T11:07:14.340Z,14.96
2023-05-12T11:09:53.634Z,14.77
2023-05-12T11:12:24.502Z,14.68
2023-05-12T11:14:52.151Z,14.67
2023-05-12T11:17:21.114Z,14.80
2023-05-12T11:19:50.188Z,14.74
2023-05-12T11:22:19.229Z,14.69
2023-05-12T11:24:47.850Z,14.70
2023-05-12T11:27:17.502Z,14.65
2023-05-12T11:29:47.126Z,14.76
2023-05-12T11:32:16.642Z,14.68
2023-05-12T11:34:47.118Z,14.57
2023-05-12T11:37:14.812Z,14.68
2023-05-12T11:39:42.517Z,14.53
2023-05-12T11:42:13.289Z,14.71
2023-05-12T11:44:48.032Z,14.63
2023-05-12T11:47:16.895Z,14.81
2023-05-12T11:49:50.688Z,15.02
2023-05-12T11:52:19.452Z,15.07
2023-05-12T11:54:51.050Z,15.39
2023-05-12T11:57:26.963Z,15.44
2023-05-12T11:59:58.845Z,15.42
2023-05-12T12:02:26.655Z,15.47
2023-05-12T12:04:55.626Z,15.69
2023-05-12T12:07:30.665Z,15.63
2023-05-12T12:09:58.252Z,15.73
2023-05-12T12:12:26.077Z,15.41
2023-05-12T12:14:56.585Z,15.33
2023-05-12T12:17:30.544Z,15.05
2023-05-12T12:19:59.859Z,15.24
2023-05-12T12:22:27.961Z,15.13
2023-05-12T12:24:55.521Z,14.90
2023-05-12T12:27:23.161Z,14.94
2023-05-12T12:29:51.237Z,15.00
2023-05-12T12:32:18.852Z,14.98
2023-05-12T12:34:48.442Z,15.15
2023-05-12T12:37:17.639Z,14.91
2023-05-12T12:39:45.272Z,14.85
2023-05-12T12:42:13.315Z,14.68
2023-05-12T12:44:41.061Z,14.77
2023-05-12T12:47:08.697Z,14.69
2023-05-12T12:49:36.345Z,14.67
2023-05-12T12:52:04.040Z,14.52
2023-05-12T12:54:33.153Z,14.50
2023-05-12T12:57:00.734Z,14.58
2023-05-12T12:59:28.364Z,14.55
2023-05-12T13:01:59.723Z,14.53
2023-05-12T13:04:27.440Z,14.48
2023-05-12T13:06:55.006Z,14.66
2023-05-12T13:09:22.905Z,14.57
2023-05-12T13:11:51.886Z,14.57
2023-05-12T13:14:19.520Z,14.39
2023-05-12T13:16:47.129Z,14.62
2023-05-12T13:19:15.059Z,14.36
2023-05-12T13:21:42.993Z,14.26
2023-05-12T13:24:10.616Z,14.07
2023-05-12T13:26:38.263Z,13.98
2023-05-12T13:29:07.548Z,13.90
2023-05-12T13:31:35.207Z,13.61
2023-05-12T13:34:02.884Z,13.78
2023-05-12T13:36:32.258Z,13.81
2023-05-12T13:38:59.891Z,13.97
2023-05-12T13:41:27.480Z,13.87
2023-05-12T13:43:55.114Z,13.92
2023-05-12T13:46:24.282Z,14.00
2023-05-12T13:48:52.670Z,14.09
2023-05-12T13:51:20.496Z,14.20
2023-05-12T13:53:48.204Z,14.23
2023-05-12T13:56:16.608Z,14.26
2023-05-12T13:58:44.535Z,14.40
2023-05-12T14:01:12.496Z,14.40
2023-05-12T14:03:42.050Z,14.66
2023-05-12T14:06:10.729Z,14.60
2023-05-12T14:08:38.473Z,14.70
2023-05-12T14:11:06.089Z,14.80
2023-05-12T14:13:33.698Z,14.74
2023-05-12T14:16:01.278Z,14.65
2023-05-12T14:18:28.970Z,14.90
2023-05-12T14:20:58.014Z,15.02
2023-05-12T14:23:25.688Z,15.14
2023-05-12T14:25:53.368Z,14.69
2023-05-12T14:28:22.878Z,14.96
2023-05-12T14:30:50.857Z,14.91
2023-05-12T14:33:18.494Z,15.15
2023-05-12T14:35:55.628Z,15.05
2023-05-12T14:38:25.088Z,15.04
2023-05-12T14:40:52.643Z,15.04
2023-05-12T14:43:20.294Z,15.02
2023-05-12T14:45:54.217Z,15.08
2023-05-12T14:48:22.521Z,15.10
2023-05-12T14:50:53.143Z,15.19
2023-05-12T14:53:20.870Z,15.27
2023-05-12T14:55:50.824Z,15.09
2023-05-12T14:58:18.636Z,15.23
2023-05-12T15:00:47.329Z,15.26
2023-05-12T15:03:15.500Z,15.17
2023-05-12T15:08:14.618Z,15.31
2023-05-12T15:10:42.663Z,15.37
2023-05-12T15:13:12.511Z,15.34
2023-05-12T15:15:40.621Z,15.50
2023-05-12T15:18:08.841Z,15.59
2023-05-12T15:20:36.841Z,15.52
2023-05-12T15:23:04.659Z,15.50
2023-05-12T15:25:32.923Z,15.37
2023-05-12T15:28:00.891Z,15.48
2023-05-12T15:30:30.333Z,15.54
2023-05-12T15:32:58.441Z,15.42
2023-05-12T15:35:27.627Z,15.44
2023-05-12T15:37:55.550Z,15.42
2023-05-12T15:40:23.790Z,15.39
2023-05-12T15:42:51.835Z,15.42
2023-05-12T15:45:20.080Z,15.51
2023-05-12T15:47:49.557Z,15.44
2023-05-12T15:50:19.864Z,15.41
2023-05-12T15:52:48.006Z,15.55
2023-05-12T15:55:16.730Z,15.71
2023-05-12T15:57:45.043Z,15.48
2023-05-12T16:00:14.268Z,15.46
2023-05-12T16:02:42.332Z,15.51
2023-05-12T16:05:12.668Z,15.53
2023-05-12T16:07:40.605Z,15.60
2023-05-12T16:10:09.337Z,15.56
2023-05-12T16:12:37.398Z,15.38
2023-05-12T16:15:05.982Z,15.44
2023-05-12T16:17:33.926Z,15.63
2023-05-12T16:20:02.211Z,15.55
2023-05-12T16:22:31.745Z,15.70
2023-05-12T16:24:59.717Z,15.68
2023-05-12T16:27:27.541Z,15.79
2023-05-12T16:29:55.661Z,15.81
2023-05-12T16:32:23.756Z,15.80
2023-05-12T16:34:54.641Z,15.75
2023-05-12T16:37:22.884Z,15.78
2023-05-12T16:39:52.333Z,15.86
2023-05-12T16:42:20.497Z,15.73
2023-05-12T16:44:48.407Z,15.63
2023-05-12T16:47:16.580Z,15.66
2023-05-12T16:49:44.466Z,15.56
2023-05-12T16:52:14.894Z,15.54
2023-05-12T16:54:42.846Z,15.55
2023-05-12T16:57:12.505Z,15.57
2023-05-12T16:59:40.413Z,15.48
2023-05-12T17:02:08.918Z,15.55
2023-05-12T17:04:36.903Z,15.28
2023-05-12T17:07:04.814Z,15.43
2023-05-12T17:09:32.813Z,15.25
2023-05-12T17:12:00.860Z,15.09
2023-05-12T17:14:30.399Z,15.23
2023-05-12T17:16:58.321Z,15.19
2023-05-12T17:19:26.818Z,15.11
2023-05-12T17:21:55.006Z,15.11
2023-05-12T17:24:23.079Z,14.98
2023-05-12T17:26:51.508Z,14.94
2023-05-12T17:29:19.615Z,15.15
2023-05-12T17:31:49.095Z,14.98
2023-05-12T17:34:17.513Z,14.99
2023-05-12T17:36:45.548Z,14.93
2023-05-12T17:39:15.953Z,14.91
2023-05-12T17:41:44.186Z,14.88
2023-05-12T17:44:12.330Z,14.79
2023-05-12T17:46:40.610Z,14.77
2023-05-12T17:49:09.604Z,14.66
2023-05-12T17:51:37.189Z,14.81
2023-05-12T17:54:04.832Z,14.74
2023-05-12T17:56:32.469Z,14.54
2023-05-12T17:59:00.153Z,14.47
2023-05-12T18:01:27.908Z,14.50
2023-05-12T18:03:55.612Z,14.37
2023-05-12T18:06:24.646Z,14.28
2023-05-12T18:08:52.291Z,14.38
2023-05-12T18:11:19.920Z,14.37
2023-05-12T18:13:47.497Z,14.34
2023-05-12T18:16:27.561Z,14.35
2023-05-12T18:18:56.535Z,14.19
2023-05-12T18:21:25.793Z,14.11
2023-05-12T18:23:53.405Z,14.05
2023-05-12T18:26:21.165Z,14.25
2023-05-12T18:28:49.292Z,14.15
2023-05-12T18:31:19.604Z,14.03
2023-05-12T18:33:48.193Z,13.97
2023-05-12T18:36:16.300Z,13.85
2023-05-12T18:38:45.831Z,13.87
2023-05-12T18:41:14.117Z,13.99
2023-05-12T18:43:44.075Z,13.94
2023-05-12T18:46:12.889Z,14.00
2023-05-12T18:48:41.112Z,13.95
2023-05-12T18:51:09.564Z,13.89
2023-05-12T18:53:37.795Z,13.70
2023-05-12T18:56:07.450Z,13.91
2023-05-12T18:58:35.603Z,13.54
2023-05-12T19:01:05.136Z,13.68
2023-05-12T19:03:33.873Z,13.58
2023-05-12T19:06:02.048Z,13.84
2023-05-12T19:08:30.059Z,13.63
2023-05-12T19:10:57.929Z,13.67
2023-05-12T19:13:27.483Z,13.69
2023-05-12T19:15:55.536Z,13.35
2023-05-12T19:18:23.570Z,13.45
2023-05-12T19:20:51.676Z,13.42
2023-05-12T19:23:19.464Z,13.56
2023-05-12T19:25:47.495Z,13.35
2023-05-12T19:28:15.868Z,13.20
2023-05-12T19:30:45.447Z,13.19
2023-05-12T19:33:14.173Z,13.27
2023-05-12T19:35:43.274Z,13.29
2023-05-12T19:38:11.207Z,13.18
2023-05-12T19:40:39.237Z,13.14
2023-05-12T19:43:10.167Z,13.09
2023-05-12T19:45:38.171Z,12.97
2023-05-12T19:48:08.323Z,13.04
2023-05-12T19:50:36.272Z,12.73
2023-05-12T19:53:04.038Z,12.91
2023-05-12T19:55:31.960Z,13.03
2023-05-12T19:58:03.385Z,13.11
2023-05-12T20:00:31.623Z,13.00
2023-05-12T20:02:59.722Z,12.90
2023-05-12T20:05:29.119Z,12.79
2023-05-12T20:07:57.270Z,12.81
2023-05-12T20:10:25.299Z,12.92
2023-05-12T20:12:53.324Z,12.87
2023-05-12T20:15:21.803Z,12.89
2023-05-12T20:17:50.291Z,12.86
2023-05-12T20:20:18.278Z,12.85
2023-05-12T20:22:47.509Z,12.82
2023-05-12T20:25:16.252Z,12.85
2023-05-12T20:27:44.487Z,12.83
2023-05-12T20:30:13.547Z,12.74
2023-05-12T20:32:42.051Z,12.80
2023-05-12T20:35:10.767Z,12.72
2023-05-12T20:37:40.663Z,12.68
2023-05-12T20:40:11.214Z,12.69
2023-05-12T20:42:39.152Z,12.72
2023-05-12T20:45:08.878Z,12.81
2023-05-12T20:47:37.363Z,12.63
2023-05-12T20:50:06.363Z,12.74
2023-05-12T20:52:34.790Z,12.76
2023-05-12T20:55:02.696Z,12.70
2023-05-12T20:57:32.290Z,12.61
2023-05-12T21:00:00.616Z,12.44
2023-05-12T21:02:29.388Z,12.65
2023-05-12T21:04:57.575Z,12.60
2023-05-12T21:07:25.270Z,12.44
2023-05-12T21:09:52.911Z,12.64
2023-05-12T21:12:20.831Z,12.66
2023-05-12T21:14:49.816Z,12.73
2023-05-12T21:17:17.445Z,12.69
2023-05-12T21:19:45.027Z,12.64
2023-05-12T21:22:12.953Z,12.33
2023-05-12T21:24:40.664Z,12.59
2023-05-12T21:27:09.089Z,12.51
2023-05-12T21:29:36.939Z,12.58
2023-05-12T21:32:06.621Z,12.35
2023-05-12T21:34:35.911Z,12.48
2023-05-12T21:37:04.165Z,12.45
2023-05-12T21:39:32.058Z,12.40
2023-05-12T21:42:00.084Z,12.50
2023-05-12T21:44:27.954Z,12.41
2023-05-12T21:46:55.828Z,12.38
2023-05-12T21:49:25.057Z,12.39
2023-05-12T21:51:55.932Z,12.37
2023-05-12T21:54:23.850Z,12.29
2023-05-12T21:56:51.648Z,12.17
2023-05-12T21:59:20.715Z,12.17
2023-05-12T22:01:48.804Z,12.04
2023-05-12T22:04:16.871Z,12.03
2023-05-12T22:06:46.154Z,12.01
2023-05-12T22:09:14.437Z,11.94
2023-05-12T22:11:42.454Z,11.87
2023-05-12T22:14:10.312Z,11.84
2023-05-12T22:16:41.885Z,11.88
2023-05-12T22:19:10.958Z,11.86
2023-05-12T22:21:39.048Z,11.64
2023-05-12T22:24:09.304Z,11.72
2023-05-12T22:26:37.242Z,11.71
2023-05-12T22:29:05.050Z,11.77
2023-05-12T22:31:32.710Z,11.74
2023-05-12T22:34:00.306Z,11.79
2023-05-12T22:36:27.955Z,11.67
2023-05-12T22:38:55.537Z,11.80
2023-05-12T22:41:24.629Z,11.86
2023-05-12T22:43:52.207Z,11.76
2023-05-12T22:46:19.955Z,11.77
2023-05-12T22:48:47.808Z,11.70
2023-05-12T22:51:15.798Z,11.66
2023-05-12T22:53:43.527Z,11.65
2023-05-12T22:56:11.228Z,11.69
2023-05-12T22:58:40.399Z,11.50
2023-05-12T23:01:08.056Z,11.63
2023-05-12T23:03:35.858Z,11.65
2023-05-12T23:06:03.533Z,11.70
2023-05-12T23:08:31.498Z,11.69
2023-05-12T23:10:59.144Z,11.72
2023-05-12T23:13:26.740Z,11.77
2023-05-12T23:15:55.706Z,11.56
2023-05-12T23:18:23.451Z,11.53
2023-05-12T23:20:51.052Z,11.70
2023-05-12T23:23:18.704Z,11.59
2023-05-12T23:25:47.517Z,11.70
2023-05-12T23:28:15.131Z,11.74
2023-05-12T23:30:42.730Z,11.77
2023-05-12T23:33:11.735Z,11.61
2023-05-12T23:35:39.419Z,11.39
2023-05-12T23:38:07.043Z,11.63
2023-05-12T23:40:38.843Z,11.55
2023-05-12T23:43:06.605Z,11.63
2023-05-12T23:45:34.549Z,11.71
2023-05-12T23:48:02.248Z,11.71
2023-05-12T23:50:31.218Z,11.63
2023-05-12T23:52:58.901Z,11.68
2023-05-12T23:55:26.491Z,11.68
2023-05-12T23:57:54.064Z,11.57
